createdAt,value
2024-02-07T00:01:36.214Z,1.39
2024-02-07T00:04:04.888Z,1.37
2024-02-07T00:06:32.149Z,1.40
2024-02-07T00:08:59.015Z,1.37
2024-02-07T00:11:25.858Z,1.28
2024-02-07T00:13:52.781Z,1.46
2024-02-07T00:16:21.130Z,1.28
2024-02-07T00:18:48.026Z,1.26
2024-02-07T00:21:14.948Z,1.29
2024-02-07T00:23:42.266Z,1.30
2024-02-07T00:26:09.097Z,1.25
2024-02-07T00:28:35.908Z,1.30
2024-02-07T00:31:05.614Z,1.61
2024-02-07T00:33:32.459Z,1.38
2024-02-07T00:35:59.484Z,1.22
2024-02-07T00:38:26.298Z,1.08
2024-02-07T00:40:53.261Z,1.05
2024-02-07T00:43:21.325Z,1.22
2024-02-07T00:45:48.779Z,1.05
2024-02-07T00:48:15.803Z,0.93
2024-02-07T00:50:42.650Z,0.93
2024-02-07T00:53:09.528Z,0.78
2024-02-07T00:55:36.379Z,0.78
2024-02-07T00:58:03.569Z,0.73
2024-02-07T01:00:30.403Z,0.63
2024-02-07T01:02:57.209Z,0.59
2024-02-07T01:05:24.134Z,0.57
2024-02-07T01:07:51.201Z,0.83
2024-02-07T01:10:18.140Z,0.58
2024-02-07T01:12:44.995Z,0.45
2024-02-07T01:15:11.914Z,0.43
2024-02-07T01:17:38.828Z,0.53
2024-02-07T01:20:11.094Z,0.57
2024-02-07T01:22:38.779Z,0.25
2024-02-07T01:25:06.767Z,0.45
2024-02-07T01:27:33.589Z,0.37
2024-02-07T01:30:00.468Z,0.20
2024-02-07T01:32:27.303Z,0.23
2024-02-07T01:34:54.189Z,0.25
2024-02-07T01:37:21.508Z,0.17
2024-02-07T01:39:48.357Z,0.35
2024-02-07T01:42:15.207Z,0.26
2024-02-07T01:44:42.114Z,0.24
2024-02-07T01:47:13.796Z,0.32
2024-02-07T01:49:51.429Z,0.17
2024-02-07T01:52:21.115Z,0.22
2024-02-07T01:54:48.280Z,0.13
2024-02-07T01:57:15.631Z,0.11
2024-02-07T01:59:43.300Z,0.29
2024-02-07T02:02:10.828Z,0.32
2024-02-07T02:04:38.780Z,0.28
2024-02-07T02:07:05.756Z,0.28
2024-02-07T02:09:32.635Z,0.26
2024-02-07T02:12:01.887Z,0.13
2024-02-07T02:14:29.974Z,0.13
2024-02-07T02:16:57.010Z,0.13
2024-02-07T02:19:24.313Z,0.08
2024-02-07T02:22:19.385Z,0.02
2024-02-07T02:24:58.769Z,-0.04
2024-02-07T02:27:37.713Z,0.01
2024-02-07T02:30:13.497Z,-0.11
2024-02-07T02:32:44.185Z,-0.15
2024-02-07T02:35:13.918Z,-0.13
2024-02-07T02:37:40.923Z,-0.09
2024-02-07T02:40:08.838Z,-0.18
2024-02-07T02:42:35.801Z,-0.21
2024-02-07T02:45:02.725Z,-0.16
2024-02-07T02:47:30.271Z,-0.20
2024-02-07T02:49:57.294Z,-0.28
2024-02-07T02:52:24.293Z,-0.23
2024-02-07T02:54:51.280Z,-0.27
2024-02-07T02:57:20.896Z,-0.32
2024-02-07T02:59:49.768Z,-0.44
2024-02-07T03:02:21.466Z,-0.48
2024-02-07T03:04:51.313Z,-0.50
2024-02-07T03:07:36.535Z,-0.58
2024-02-07T03:10:07.052Z,-0.70
2024-02-07T03:12:34.041Z,-0.65
2024-02-07T03:15:00.856Z,-0.66
2024-02-07T03:17:27.804Z,-0.73
2024-02-07T03:19:55.397Z,-0.67
2024-02-07T03:22:22.294Z,-0.69
2024-02-07T03:24:50.217Z,-0.64
2024-02-07T03:27:17.103Z,-0.66
2024-02-07T03:29:44.359Z,-0.69
2024-02-07T03:32:11.331Z,-0.53
2024-02-07T03:34:38.328Z,-0.51
2024-02-07T03:37:06.368Z,-0.58
2024-02-07T03:39:33.433Z,-0.72
2024-02-07T03:42:00.422Z,-0.78
2024-02-07T03:44:27.337Z,-0.78
2024-02-07T03:46:56.157Z,-0.76
2024-02-07T03:49:23.113Z,-0.70
2024-02-07T03:51:49.973Z,-0.75
2024-02-07T03:54:16.837Z,-0.83
2024-02-07T03:56:43.685Z,-0.83
2024-02-07T03:59:10.462Z,-0.85
2024-02-07T04:01:38.017Z,-0.80
2024-02-07T04:04:07.198Z,-0.79
2024-02-07T04:06:35.263Z,-0.96
2024-02-07T04:09:06.909Z,-1.04
2024-02-07T04:11:34.089Z,-1.06
2024-02-07T04:14:00.903Z,-1.10
2024-02-07T04:16:46.580Z,-1.28
2024-02-07T04:19:32.141Z,-1.29
2024-02-07T04:22:17.573Z,-1.29
2024-02-07T04:25:03.072Z,-1.23
2024-02-07T04:27:48.340Z,-1.37
2024-02-07T04:30:33.548Z,-1.37
2024-02-07T04:33:19.087Z,-1.30
2024-02-07T04:36:04.842Z,-1.30
2024-02-07T04:38:50.501Z,-1.12
2024-02-07T04:41:35.776Z,-1.03
2024-02-07T04:44:21.083Z,-1.14
2024-02-07T04:47:06.425Z,-1.17
2024-02-07T04:49:51.920Z,-1.13
2024-02-07T04:52:37.359Z,-1.30
2024-02-07T04:55:23.347Z,-1.32
2024-02-07T04:58:08.792Z,-1.21
2024-02-07T05:00:53.766Z,-1.26
2024-02-07T05:03:39.140Z,-1.30
2024-02-07T05:06:26.095Z,-1.16
2024-02-07T05:09:11.296Z,-1.30
2024-02-07T05:11:56.796Z,-1.31
2024-02-07T05:14:42.058Z,-1.37
2024-02-07T05:17:08.870Z,-1.24
2024-02-07T05:19:38.569Z,-1.23
2024-02-07T05:22:05.499Z,-1.28
2024-02-07T05:24:32.808Z,-1.29
2024-02-07T05:26:59.678Z,-1.40
2024-02-07T05:29:30.745Z,-1.44
2024-02-07T05:31:57.740Z,-1.40
2024-02-07T05:34:25.806Z,-1.36
2024-02-07T05:36:52.751Z,-1.42
2024-02-07T05:39:19.636Z,-1.48
2024-02-07T05:41:48.009Z,-1.55
2024-02-07T05:44:14.811Z,-1.45
2024-02-07T05:46:42.407Z,-1.43
2024-02-07T05:49:09.315Z,-1.58
2024-02-07T05:51:36.675Z,-1.56
2024-02-07T05:54:03.521Z,-1.58
2024-02-07T05:56:31.988Z,-1.56
2024-02-07T05:58:58.933Z,-1.54
2024-02-07T06:01:30.776Z,-1.50
2024-02-07T06:04:00.073Z,-1.52
2024-02-07T06:06:31.552Z,-1.55
2024-02-07T06:09:00.464Z,-1.55
2024-02-07T06:11:33.397Z,-1.59
2024-02-07T06:14:06.038Z,-1.43
2024-02-07T06:16:36.101Z,-1.44
2024-02-07T06:19:07.876Z,-1.52
2024-02-07T06:21:37.389Z,-1.42
2024-02-07T06:24:05.001Z,-1.50
2024-02-07T06:26:32.961Z,-1.58
2024-02-07T06:28:59.962Z,-1.52
2024-02-07T06:31:27.633Z,-1.43
2024-02-07T06:33:55.040Z,-1.40
2024-02-07T06:36:21.965Z,-1.42
2024-02-07T06:38:49.310Z,-1.36
2024-02-07T06:41:16.426Z,-1.33
2024-02-07T06:43:44.764Z,-1.25
2024-02-07T06:46:12.384Z,-1.35
2024-02-07T06:48:40.993Z,-1.23
2024-02-07T06:51:15.552Z,-1.21
2024-02-07T06:53:43.074Z,-1.18
2024-02-07T06:56:10.148Z,-1.13
2024-02-07T06:58:38.128Z,-1.08
2024-02-07T07:01:08.056Z,-1.09
2024-02-07T07:03:35.591Z,-1.06
2024-02-07T07:06:03.663Z,-0.96
2024-02-07T07:08:30.660Z,-0.98
2024-02-07T07:10:57.615Z,-0.92
2024-02-07T07:13:48.952Z,-0.78
2024-02-07T07:16:16.288Z,-0.69
2024-02-07T07:18:44.576Z,-0.52
2024-02-07T07:21:12.011Z,-0.39
2024-02-07T07:23:39.502Z,-0.12
2024-02-07T07:26:06.782Z,0.09
2024-02-07T07:28:34.398Z,0.39
2024-02-07T07:31:04.188Z,0.67
2024-02-07T07:33:31.063Z,0.84
2024-02-07T07:35:58.152Z,1.04
2024-02-07T07:38:24.980Z,1.29
2024-02-07T07:40:52.657Z,1.56
2024-02-07T07:43:19.923Z,1.72
2024-02-07T07:45:47.299Z,1.80
2024-02-07T07:48:14.208Z,1.95
2024-02-07T07:50:41.391Z,2.40
2024-02-07T07:53:08.232Z,2.79
2024-02-07T07:55:35.131Z,2.54
2024-02-07T07:58:02.086Z,2.53
2024-02-07T08:00:29.108Z,2.81
2024-02-07T08:02:55.924Z,2.91
2024-02-07T08:05:23.074Z,2.64
2024-02-07T08:07:49.948Z,2.72
2024-02-07T08:10:17.278Z,2.83
2024-02-07T08:12:46.389Z,2.90
2024-02-07T08:15:13.380Z,2.92
2024-02-07T08:17:40.031Z,2.92
2024-02-07T08:20:07.433Z,2.95
2024-02-07T08:22:34.848Z,3.12
2024-02-07T08:25:03.136Z,3.53
2024-02-07T08:27:29.887Z,4.36
2024-02-07T08:29:57.149Z,5.51
2024-02-07T08:32:24.319Z,6.85
2024-02-07T08:34:51.432Z,8.81
2024-02-07T08:37:21.887Z,10.12
2024-02-07T08:39:50.051Z,10.27
2024-02-07T08:42:17.098Z,12.64
2024-02-07T08:44:44.256Z,12.96
2024-02-07T08:47:13.499Z,12.17
2024-02-07T08:49:42.146Z,13.03
2024-02-07T08:52:09.046Z,13.40
2024-02-07T08:54:36.854Z,12.90
2024-02-07T08:57:04.935Z,12.94
2024-02-07T08:59:33.283Z,14.20
2024-02-07T09:02:00.222Z,14.58
2024-02-07T09:04:27.273Z,15.29
2024-02-07T09:06:54.134Z,15.44
2024-02-07T09:09:20.930Z,15.22
2024-02-07T09:11:47.696Z,15.48
2024-02-07T09:14:15.270Z,15.62
2024-02-07T09:16:42.072Z,15.00
2024-02-07T09:19:09.168Z,15.02
2024-02-07T09:21:36.228Z,15.20
2024-02-07T09:24:06.002Z,14.72
2024-02-07T09:26:32.778Z,14.87
2024-02-07T09:29:01.031Z,15.64
2024-02-07T09:31:28.138Z,16.46
2024-02-07T09:33:56.066Z,17.36
2024-02-07T09:36:25.708Z,17.66
2024-02-07T09:38:52.898Z,18.06
2024-02-07T09:41:20.748Z,20.46
2024-02-07T09:43:49.129Z,22.24
2024-02-07T09:46:22.841Z,23.34
2024-02-07T09:48:51.410Z,24.15
2024-02-07T09:51:19.966Z,24.46
2024-02-07T09:53:48.221Z,24.47
2024-02-07T09:56:16.661Z,25.33
2024-02-07T09:58:44.212Z,25.09
2024-02-07T10:01:14.507Z,25.76
2024-02-07T10:03:44.304Z,25.97
2024-02-07T10:06:14.583Z,26.24
2024-02-07T10:08:48.097Z,25.49
2024-02-07T10:11:15.418Z,25.77
2024-02-07T10:13:42.365Z,26.22
2024-02-07T10:16:10.491Z,26.97
2024-02-07T10:18:37.503Z,26.98
2024-02-07T10:21:05.654Z,26.60
2024-02-07T10:23:33.138Z,26.89
2024-02-07T10:26:02.236Z,27.02
2024-02-07T10:28:31.734Z,26.97
2024-02-07T10:31:05.512Z,27.08
2024-02-07T10:33:45.618Z,28.46
2024-02-07T10:36:16.539Z,28.54
2024-02-07T10:38:43.404Z,29.22
2024-02-07T10:41:11.741Z,28.69
2024-02-07T10:43:42.111Z,28.59
2024-02-07T10:46:18.417Z,29.09
2024-02-07T10:48:46.150Z,28.95
2024-02-07T10:51:13.349Z,28.51
2024-02-07T10:53:40.867Z,29.10
2024-02-07T10:56:12.888Z,27.98
2024-02-07T10:58:40.981Z,27.73
2024-02-07T11:01:08.990Z,27.20
2024-02-07T11:03:37.219Z,25.27
2024-02-07T11:06:05.414Z,25.32
2024-02-07T11:08:32.834Z,23.17
2024-02-07T11:11:01.632Z,22.54
2024-02-07T11:13:29.519Z,21.73
2024-02-07T11:15:58.238Z,21.66
2024-02-07T11:18:26.888Z,21.75
2024-02-07T11:20:56.510Z,21.31
2024-02-07T11:23:29.325Z,20.17
2024-02-07T11:25:56.487Z,20.60
2024-02-07T11:28:24.630Z,20.42
2024-02-07T11:30:55.957Z,19.27
2024-02-07T11:33:24.879Z,18.75
2024-02-07T11:35:53.171Z,19.61
2024-02-07T11:38:23.750Z,22.43
2024-02-07T11:40:50.687Z,25.19
2024-02-07T11:43:22.226Z,26.49
2024-02-07T11:45:52.434Z,27.11
2024-02-07T11:48:26.846Z,26.97
2024-02-07T11:50:54.475Z,25.86
2024-02-07T11:53:28.022Z,24.15
2024-02-07T11:55:55.169Z,23.07
2024-02-07T11:58:24.500Z,23.45
2024-02-07T12:00:51.981Z,23.65
2024-02-07T12:03:19.889Z,22.14
2024-02-07T12:05:48.549Z,22.29
2024-02-07T12:08:17.542Z,20.41
2024-02-07T12:10:44.513Z,21.03
2024-02-07T12:13:16.430Z,21.79
2024-02-07T12:15:44.614Z,21.52
2024-02-07T12:18:11.978Z,20.70
2024-02-07T12:20:39.789Z,20.79
2024-02-07T12:23:07.766Z,21.99
2024-02-07T12:25:34.969Z,20.94
2024-02-07T12:28:14.693Z,19.07
2024-02-07T12:30:41.571Z,18.79
2024-02-07T12:33:11.770Z,18.99
2024-02-07T12:35:49.331Z,19.09
2024-02-07T12:38:17.754Z,19.36
2024-02-07T12:40:52.137Z,19.84
2024-02-07T12:43:25.839Z,20.41
2024-02-07T12:46:02.704Z,20.83
2024-02-07T12:48:30.349Z,20.53
2024-02-07T12:50:59.685Z,20.51
2024-02-07T12:53:28.307Z,20.29
2024-02-07T12:55:55.685Z,21.35
2024-02-07T12:58:25.558Z,23.65
2024-02-07T13:01:03.085Z,25.24
2024-02-07T13:03:34.186Z,25.74
2024-02-07T13:06:01.345Z,26.02
2024-02-07T13:08:28.288Z,25.62
2024-02-07T13:10:55.258Z,24.23
2024-02-07T13:13:23.903Z,23.37
2024-02-07T13:16:15.321Z,23.70
2024-02-07T13:18:44.324Z,23.92
2024-02-07T13:21:11.774Z,24.44
2024-02-07T13:23:40.289Z,25.15
2024-02-07T13:26:09.812Z,25.46
2024-02-07T13:28:38.035Z,26.67
2024-02-07T13:31:05.736Z,27.78
2024-02-07T13:33:32.658Z,26.46
2024-02-07T13:35:59.734Z,28.14
2024-02-07T13:38:33.810Z,27.81
2024-02-07T13:41:04.482Z,29.65
2024-02-07T13:43:31.484Z,29.70
2024-02-07T13:45:59.222Z,28.58
2024-02-07T13:48:30.026Z,26.01
2024-02-07T13:51:00.647Z,27.60
2024-02-07T13:53:27.996Z,25.93
2024-02-07T13:55:55.376Z,27.52
2024-02-07T13:58:22.293Z,27.84
2024-02-07T14:00:51.428Z,25.82
2024-02-07T14:03:18.375Z,25.01
2024-02-07T14:05:45.221Z,24.83
2024-02-07T14:08:14.566Z,25.59
2024-02-07T14:10:42.007Z,23.94
2024-02-07T14:13:10.026Z,24.69
2024-02-07T14:15:38.263Z,25.21
2024-02-07T14:18:05.243Z,25.76
2024-02-07T14:20:32.095Z,24.89
2024-02-07T14:22:59.101Z,24.67
2024-02-07T14:25:26.045Z,24.42
2024-02-07T14:27:52.906Z,24.57
2024-02-07T14:30:23.756Z,24.49
2024-02-07T14:32:53.816Z,24.92
2024-02-07T14:35:20.748Z,24.85
2024-02-07T14:37:47.916Z,23.85
2024-02-07T14:40:15.987Z,22.42
2024-02-07T14:42:42.911Z,20.26
2024-02-07T14:45:12.740Z,18.50
2024-02-07T14:47:40.087Z,18.10
2024-02-07T14:50:07.266Z,17.22
2024-02-07T14:52:34.209Z,16.85
2024-02-07T14:55:01.494Z,16.40
2024-02-07T14:57:28.386Z,16.14
2024-02-07T14:59:55.205Z,15.61
2024-02-07T15:02:22.062Z,15.79
2024-02-07T15:04:49.071Z,15.76
2024-02-07T15:07:16.094Z,15.32
2024-02-07T15:09:44.374Z,14.92
2024-02-07T15:12:12.350Z,14.64
2024-02-07T15:14:39.151Z,14.13
2024-02-07T15:17:06.027Z,14.10
2024-02-07T15:19:33.028Z,14.02
2024-02-07T15:21:59.955Z,13.90
2024-02-07T15:24:26.791Z,13.91
2024-02-07T15:26:53.658Z,13.75
2024-02-07T15:29:21.160Z,13.54
2024-02-07T15:31:48.037Z,13.34
2024-02-07T15:34:15.069Z,13.21
2024-02-07T15:36:42.002Z,13.07
2024-02-07T15:39:08.905Z,12.90
2024-02-07T15:41:35.973Z,12.69
2024-02-07T15:44:03.596Z,12.52
2024-02-07T15:46:30.510Z,12.37
2024-02-07T15:49:06.812Z,12.22
2024-02-07T15:51:36.423Z,12.07
2024-02-07T15:54:03.457Z,11.92
2024-02-07T15:56:32.080Z,11.67
2024-02-07T15:58:59.296Z,11.47
2024-02-07T16:01:36.519Z,11.32
2024-02-07T16:04:08.651Z,11.17
2024-02-07T16:06:38.649Z,10.91
2024-02-07T16:09:05.572Z,10.76
2024-02-07T16:11:32.359Z,10.52
2024-02-07T16:13:59.212Z,10.42
2024-02-07T16:16:26.228Z,10.18
2024-02-07T16:18:53.029Z,9.99
2024-02-07T16:21:19.937Z,9.84
2024-02-07T16:23:46.766Z,9.72
2024-02-07T16:26:13.621Z,9.55
2024-02-07T16:28:40.469Z,9.49
2024-02-07T16:31:08.419Z,9.43
2024-02-07T16:33:35.308Z,9.61
2024-02-07T16:36:02.195Z,9.33
2024-02-07T16:38:29.168Z,9.09
2024-02-07T16:40:56.058Z,9.00
2024-02-07T16:43:22.902Z,8.91
2024-02-07T16:45:49.739Z,8.83
2024-02-07T16:48:16.803Z,8.71
2024-02-07T16:50:43.725Z,8.55
2024-02-07T16:53:10.700Z,8.51
2024-02-07T16:55:37.659Z,8.45
2024-02-07T16:58:06.353Z,8.36
2024-02-07T17:00:33.520Z,8.35
2024-02-07T17:03:00.388Z,8.26
2024-02-07T17:05:27.332Z,8.20
2024-02-07T17:07:57.089Z,8.12
2024-02-07T17:10:24.102Z,8.08
2024-02-07T17:12:50.914Z,8.01
2024-02-07T17:15:23.943Z,7.96
2024-02-07T17:17:50.839Z,7.84
2024-02-07T17:20:19.045Z,7.75
2024-02-07T17:22:46.028Z,7.66
2024-02-07T17:25:13.720Z,7.54
2024-02-07T17:27:41.865Z,7.50
2024-02-07T17:30:14.705Z,7.53
2024-02-07T17:32:48.802Z,7.55
2024-02-07T17:35:40.317Z,7.64
2024-02-07T17:38:07.176Z,7.75
2024-02-07T17:40:34.051Z,7.77
2024-02-07T17:43:00.942Z,7.76
2024-02-07T17:45:27.950Z,7.71
2024-02-07T17:47:55.110Z,7.72
2024-02-07T17:50:46.646Z,7.64
2024-02-07T17:53:13.726Z,7.57
2024-02-07T17:55:43.069Z,7.63
2024-02-07T17:58:11.154Z,7.53
2024-02-07T18:00:38.008Z,7.37
2024-02-07T18:03:05.152Z,7.25
2024-02-07T18:05:34.347Z,7.12
2024-02-07T18:08:01.449Z,7.01
2024-02-07T18:10:32.922Z,6.93
2024-02-07T18:13:00.254Z,6.88
2024-02-07T18:15:27.139Z,6.74
2024-02-07T18:17:54.069Z,6.74
2024-02-07T18:20:20.997Z,6.51
2024-02-07T18:22:47.889Z,6.49
2024-02-07T18:25:14.800Z,6.51
2024-02-07T18:27:41.587Z,6.39
2024-02-07T18:30:10.062Z,6.24
2024-02-07T18:32:37.817Z,6.19
2024-02-07T18:35:05.129Z,6.08
2024-02-07T18:37:32.030Z,6.00
2024-02-07T18:39:59.088Z,5.96
2024-02-07T18:42:25.939Z,6.02
2024-02-07T18:44:52.755Z,5.87
2024-02-07T18:47:19.703Z,5.77
2024-02-07T18:49:46.934Z,5.61
2024-02-07T18:52:13.810Z,5.61
2024-02-07T18:54:40.617Z,5.52
2024-02-07T18:57:07.467Z,5.43
2024-02-07T18:59:34.257Z,5.48
2024-02-07T19:02:01.133Z,5.35
2024-02-07T19:04:30.086Z,5.34
2024-02-07T19:06:57.205Z,5.27
2024-02-07T19:09:25.022Z,5.24
2024-02-07T19:11:57.004Z,5.16
2024-02-07T19:14:25.846Z,5.07
2024-02-07T19:16:53.746Z,5.14
2024-02-07T19:19:22.305Z,5.11
2024-02-07T19:21:49.277Z,5.09
2024-02-07T19:24:20.662Z,5.14
2024-02-07T19:26:51.573Z,5.07
2024-02-07T19:29:18.581Z,5.01
2024-02-07T19:31:45.497Z,4.95
2024-02-07T19:34:12.611Z,4.96
2024-02-07T19:36:39.494Z,4.74
2024-02-07T19:39:06.409Z,4.67
2024-02-07T19:41:33.335Z,4.61
2024-02-07T19:44:00.321Z,4.81
2024-02-07T19:46:28.329Z,4.90
2024-02-07T19:48:55.427Z,4.89
2024-02-07T19:51:22.397Z,4.70
2024-02-07T19:53:49.268Z,4.64
2024-02-07T19:56:16.877Z,4.65
2024-02-07T19:58:43.847Z,4.52
2024-02-07T20:01:10.900Z,4.45
2024-02-07T20:03:37.885Z,4.37
2024-02-07T20:06:05.071Z,4.35
2024-02-07T20:08:32.026Z,4.20
2024-02-07T20:10:59.034Z,4.29
2024-02-07T20:13:25.994Z,4.23
2024-02-07T20:15:52.893Z,4.27
2024-02-07T20:18:19.822Z,4.28
2024-02-07T20:20:47.904Z,4.20
2024-02-07T20:23:23.396Z,4.27
2024-02-07T20:26:03.772Z,4.13
2024-02-07T20:28:33.106Z,4.10
2024-02-07T20:31:00.068Z,4.09
2024-02-07T20:33:26.968Z,4.12
2024-02-07T20:35:53.864Z,4.00
2024-02-07T20:38:20.697Z,4.03
2024-02-07T20:40:47.564Z,4.13
2024-02-07T20:43:14.394Z,4.15
2024-02-07T20:45:41.247Z,4.32
2024-02-07T20:48:08.707Z,4.15
2024-02-07T20:50:35.991Z,3.92
2024-02-07T20:53:04.326Z,3.93
2024-02-07T20:55:31.386Z,3.91
2024-02-07T20:57:58.311Z,4.08
2024-02-07T21:00:26.439Z,4.08
2024-02-07T21:02:56.063Z,4.08
2024-02-07T21:05:23.000Z,4.04
2024-02-07T21:07:50.769Z,4.09
2024-02-07T21:10:17.686Z,4.07
2024-02-07T21:12:44.655Z,4.13
2024-02-07T21:15:11.505Z,4.01
2024-02-07T21:17:41.183Z,4.07
2024-02-07T21:20:10.135Z,3.96
2024-02-07T21:22:37.259Z,3.93
2024-02-07T21:25:04.644Z,3.92
2024-02-07T21:27:31.539Z,3.73
2024-02-07T21:29:58.395Z,3.67
2024-02-07T21:32:25.468Z,3.58
2024-02-07T21:34:52.416Z,3.59
2024-02-07T21:37:19.391Z,3.51
2024-02-07T21:39:46.330Z,3.52
2024-02-07T21:42:13.187Z,3.60
2024-02-07T21:44:40.080Z,3.64
2024-02-07T21:47:07.084Z,3.61
2024-02-07T21:49:34.247Z,3.52
2024-02-07T21:52:01.105Z,3.57
2024-02-07T21:54:27.928Z,3.45
2024-02-07T21:56:55.010Z,3.63
2024-02-07T21:59:21.808Z,3.51
2024-02-07T22:01:48.703Z,3.52
2024-02-07T22:04:15.690Z,3.58
2024-02-07T22:06:43.855Z,3.56
2024-02-07T22:09:10.719Z,3.55
2024-02-07T22:11:37.604Z,3.46
2024-02-07T22:14:04.702Z,3.38
2024-02-07T22:16:32.461Z,3.29
2024-02-07T22:18:59.517Z,3.28
2024-02-07T22:21:26.421Z,3.28
2024-02-07T22:23:53.382Z,3.31
2024-02-07T22:26:20.248Z,3.26
2024-02-07T22:28:49.032Z,3.30
2024-02-07T22:31:23.120Z,3.30
2024-02-07T22:33:51.129Z,3.26
2024-02-07T22:36:20.546Z,3.26
2024-02-07T22:38:47.497Z,3.31
2024-02-07T22:41:14.772Z,3.40
2024-02-07T22:43:41.690Z,3.14
2024-02-07T22:46:11.641Z,3.13
2024-02-07T22:48:39.150Z,3.08
2024-02-07T22:51:09.774Z,2.97
2024-02-07T22:53:37.514Z,3.04
2024-02-07T22:56:04.693Z,2.96
2024-02-07T22:58:31.577Z,3.09
2024-02-07T23:00:58.516Z,2.98
2024-02-07T23:03:25.370Z,3.08
2024-02-07T23:05:52.510Z,2.99
2024-02-07T23:08:19.882Z,3.15
2024-02-07T23:10:46.826Z,3.04
2024-02-07T23:13:13.834Z,3.09
2024-02-07T23:15:41.185Z,3.03
2024-02-07T23:18:08.628Z,3.04
2024-02-07T23:20:37.058Z,3.13
2024-02-07T23:23:04.082Z,3.13
2024-02-07T23:25:32.074Z,3.10
2024-02-07T23:27:59.151Z,3.18
2024-02-07T23:30:26.017Z,3.15
2024-02-07T23:32:53.664Z,3.11
2024-02-07T23:35:20.583Z,3.07
2024-02-07T23:37:47.469Z,2.90
2024-02-07T23:40:14.552Z,2.97
2024-02-07T23:42:41.424Z,2.97
2024-02-07T23:45:10.034Z,2.88
2024-02-07T23:47:38.434Z,2.97
2024-02-07T23:50:06.937Z,3.10
2024-02-07T23:52:35.742Z,3.09
2024-02-07T23:55:03.735Z,3.12
2024-02-07T23:57:30.674Z,3.16
2024-02-07T23:59:57.546Z,3.26
